createdAt,value
2017-08-13T00:01:53.819Z,2.93
2017-08-13T00:04:21.509Z,2.90
2017-08-13T00:06:49.039Z,3.37
2017-08-13T00:09:16.544Z,3.80
2017-08-13T00:11:44.816Z,3.70
2017-08-13T00:14:16.725Z,3.23
2017-08-13T00:16:44.236Z,3.63
2017-08-13T00:19:11.791Z,3.47
2017-08-13T00:21:40.176Z,3.07
2017-08-13T00:24:07.687Z,3.40
2017-08-13T00:26:35.183Z,3.20
2017-08-13T00:29:02.679Z,3.00
2017-08-13T00:31:30.535Z,3.90
2017-08-13T00:33:58.084Z,3.70
2017-08-13T00:36:25.660Z,3.40
2017-08-13T00:38:53.188Z,3.20
2017-08-13T00:41:20.754Z,3.30
2017-08-13T00:43:48.352Z,3.80
2017-08-13T00:46:15.848Z,3.23
2017-08-13T00:48:43.536Z,3.70
2017-08-13T00:51:11.507Z,3.60
2017-08-13T00:53:39.033Z,3.00
2017-08-13T00:56:06.777Z,2.80
2017-08-13T00:58:41.356Z,3.03
2017-08-13T01:01:08.980Z,2.80
2017-08-13T01:03:36.480Z,3.00
2017-08-13T01:06:04.028Z,3.50
2017-08-13T01:08:31.527Z,3.73
2017-08-13T01:10:59.035Z,3.90
2017-08-13T01:13:28.253Z,3.90
2017-08-13T01:15:55.819Z,4.10
2017-08-13T01:18:23.379Z,3.50
2017-08-13T01:20:50.963Z,3.10
2017-08-13T01:23:18.763Z,3.60
2017-08-13T01:25:46.267Z,3.60
2017-08-13T01:28:17.673Z,3.13
2017-08-13T01:30:45.215Z,2.77
2017-08-13T01:33:12.716Z,3.93
2017-08-13T01:35:40.253Z,2.57
2017-08-13T01:38:07.756Z,3.03
2017-08-13T01:40:35.285Z,3.00
2017-08-13T01:43:02.844Z,3.40
2017-08-13T01:45:30.408Z,3.53
2017-08-13T01:47:57.907Z,3.30
2017-08-13T01:50:26.171Z,3.60
2017-08-13T01:52:53.731Z,2.87
2017-08-13T01:55:21.232Z,2.90
2017-08-13T01:57:48.809Z,3.47
2017-08-13T02:00:16.345Z,3.70
2017-08-13T02:02:43.839Z,3.03
2017-08-13T02:05:11.383Z,5.17
2017-08-13T02:07:38.884Z,2.70
2017-08-13T02:10:07.387Z,3.40
2017-08-13T02:12:34.895Z,3.17
2017-08-13T02:15:06.417Z,3.30
2017-08-13T02:17:33.920Z,4.40
2017-08-13T02:20:01.800Z,3.40
2017-08-13T02:22:29.369Z,3.50
2017-08-13T02:24:56.890Z,3.40
2017-08-13T02:27:24.475Z,3.50
2017-08-13T02:29:55.672Z,3.70
2017-08-13T02:32:23.184Z,2.90
2017-08-13T02:34:50.732Z,3.77
2017-08-13T02:37:18.240Z,3.30
2017-08-13T02:39:45.748Z,3.00
2017-08-13T02:42:13.308Z,3.40
2017-08-13T02:44:40.824Z,2.60
2017-08-13T02:47:08.340Z,2.87
2017-08-13T02:49:35.896Z,3.57
2017-08-13T02:52:03.408Z,3.00
2017-08-13T02:54:30.999Z,3.80
2017-08-13T02:56:58.546Z,3.10
2017-08-13T02:59:28.866Z,3.20
2017-08-13T03:01:56.363Z,3.47
2017-08-13T03:04:23.904Z,3.07
2017-08-13T03:06:52.300Z,3.73
2017-08-13T03:09:19.883Z,4.17
2017-08-13T03:11:47.400Z,3.60
2017-08-13T03:14:15.000Z,3.60
2017-08-13T03:16:42.527Z,3.20
2017-08-13T03:19:10.019Z,3.43
2017-08-13T03:21:37.587Z,3.60
2017-08-13T03:24:05.303Z,3.57
2017-08-13T03:26:32.871Z,3.90
2017-08-13T03:29:00.363Z,3.40
2017-08-13T03:31:27.906Z,3.70
2017-08-13T03:33:55.428Z,3.50
2017-08-13T03:36:23.002Z,3.70
2017-08-13T03:38:50.504Z,3.63
2017-08-13T03:41:18.012Z,3.90
2017-08-13T03:43:46.080Z,3.73
2017-08-13T03:46:17.675Z,3.20
2017-08-13T03:48:45.175Z,4.30
2017-08-13T03:51:12.743Z,3.80
2017-08-13T03:53:41.063Z,3.90
2017-08-13T03:56:08.619Z,3.50
2017-08-13T03:58:36.179Z,3.53
2017-08-13T04:01:10.975Z,3.40
2017-08-13T04:03:39.800Z,3.50
2017-08-13T04:06:07.324Z,3.17
2017-08-13T04:08:34.827Z,3.30
2017-08-13T04:11:02.340Z,3.10
2017-08-13T04:13:29.880Z,3.27
2017-08-13T04:16:01.760Z,4.00
2017-08-13T04:18:29.261Z,3.30
2017-08-13T04:20:56.775Z,3.57
2017-08-13T04:23:25.199Z,3.50
2017-08-13T04:25:52.696Z,3.57
2017-08-13T04:28:21.004Z,3.70
2017-08-13T04:30:48.523Z,3.50
2017-08-13T04:33:20.559Z,4.03
2017-08-13T04:35:48.082Z,3.57
2017-08-13T04:38:15.575Z,3.57
2017-08-13T04:40:43.157Z,3.60
2017-08-13T04:43:10.662Z,4.30
2017-08-13T04:45:38.188Z,3.50
2017-08-13T04:48:06.576Z,3.57
2017-08-13T04:50:34.849Z,3.50
2017-08-13T04:53:02.365Z,4.00
2017-08-13T04:55:29.909Z,3.80
2017-08-13T04:57:57.418Z,3.97
2017-08-13T05:00:24.931Z,4.30
2017-08-13T05:02:52.437Z,3.60
2017-08-13T05:05:19.987Z,3.70
2017-08-13T05:07:47.967Z,3.50
2017-08-13T05:10:15.470Z,3.70
2017-08-13T05:12:42.998Z,3.80
2017-08-13T05:15:11.289Z,3.67
2017-08-13T05:17:39.855Z,4.10
2017-08-13T05:20:07.359Z,4.23
2017-08-13T05:22:34.883Z,3.83
2017-08-13T05:25:03.294Z,3.80
2017-08-13T05:27:30.795Z,3.57
2017-08-13T05:29:58.312Z,3.77
2017-08-13T05:32:25.807Z,4.57
2017-08-13T05:34:53.336Z,3.90
2017-08-13T05:37:20.847Z,3.60
2017-08-13T05:39:48.343Z,2.53
2017-08-13T05:42:15.843Z,3.30
2017-08-13T05:44:43.359Z,3.30
2017-08-13T05:47:10.869Z,2.90
2017-08-13T05:49:38.374Z,2.60
2017-08-13T05:52:05.927Z,3.50
2017-08-13T05:54:33.467Z,3.43
2017-08-13T05:57:00.976Z,3.50
2017-08-13T05:59:28.895Z,2.70
2017-08-13T06:01:56.443Z,3.50
2017-08-13T06:04:23.935Z,3.70
2017-08-13T06:06:52.204Z,2.47
2017-08-13T06:09:19.709Z,3.90
2017-08-13T06:11:47.345Z,3.30
2017-08-13T06:14:14.863Z,3.37
2017-08-13T06:16:42.402Z,4.10
2017-08-13T06:19:09.899Z,3.27
2017-08-13T06:21:38.229Z,3.73
2017-08-13T06:24:05.803Z,4.87
2017-08-13T06:26:33.350Z,3.67
2017-08-13T06:29:00.860Z,4.60
2017-08-13T06:31:28.362Z,4.20
2017-08-13T06:33:55.865Z,3.70
2017-08-13T06:36:24.471Z,4.00
2017-08-13T06:38:51.979Z,3.77
2017-08-13T06:41:19.988Z,3.60
2017-08-13T06:43:47.546Z,3.87
2017-08-13T06:46:15.081Z,3.50
2017-08-13T06:48:42.588Z,4.00
2017-08-13T06:51:10.091Z,3.93
2017-08-13T06:53:40.713Z,4.27
2017-08-13T06:56:08.252Z,3.80
2017-08-13T06:58:35.826Z,4.13
2017-08-13T07:01:03.343Z,4.70
2017-08-13T07:03:30.852Z,5.20
2017-08-13T07:05:58.388Z,4.57
2017-08-13T07:08:25.943Z,4.10
2017-08-13T07:10:53.562Z,4.17
2017-08-13T07:13:21.059Z,3.87
2017-08-13T07:15:48.587Z,3.97
2017-08-13T07:18:16.204Z,3.90
2017-08-13T07:20:43.716Z,3.17
2017-08-13T07:23:11.243Z,3.60
2017-08-13T07:25:38.784Z,3.87
2017-08-13T07:28:06.376Z,4.40
2017-08-13T07:30:33.895Z,3.03
2017-08-13T07:33:01.439Z,3.63
2017-08-13T07:35:29.140Z,3.03
2017-08-13T07:37:56.657Z,3.50
2017-08-13T07:40:24.216Z,4.00
2017-08-13T07:42:51.729Z,4.23
2017-08-13T07:45:19.307Z,4.70
2017-08-13T07:47:47.942Z,3.97
2017-08-13T07:50:15.444Z,3.50
2017-08-13T07:52:42.991Z,4.23
2017-08-13T07:55:10.490Z,3.10
2017-08-13T07:57:38.029Z,4.40
2017-08-13T08:00:05.592Z,3.60
2017-08-13T08:02:33.152Z,3.27
2017-08-13T08:05:00.715Z,3.73
2017-08-13T08:07:31.743Z,3.27
2017-08-13T08:09:59.294Z,3.57
2017-08-13T08:12:26.849Z,3.90
2017-08-13T08:14:54.352Z,3.07
2017-08-13T08:17:21.868Z,3.00
2017-08-13T08:19:53.151Z,3.83
2017-08-13T08:22:20.689Z,3.10
2017-08-13T08:24:48.211Z,4.17
2017-08-13T08:27:15.737Z,3.67
2017-08-13T08:29:43.300Z,3.27
2017-08-13T08:32:11.628Z,3.30
2017-08-13T08:34:39.209Z,2.77
2017-08-13T08:37:07.536Z,3.20
2017-08-13T08:39:35.047Z,3.40
2017-08-13T08:42:02.999Z,4.03
2017-08-13T08:44:30.706Z,3.70
2017-08-13T08:46:58.218Z,4.13
2017-08-13T08:49:25.767Z,6.53
2017-08-13T08:51:56.590Z,4.57
2017-08-13T08:54:24.604Z,5.30
2017-08-13T08:56:52.113Z,5.70
2017-08-13T08:59:19.632Z,4.77
2017-08-13T09:01:47.238Z,4.83
2017-08-13T09:04:14.781Z,4.13
2017-08-13T09:06:51.139Z,4.40
2017-08-13T09:09:21.961Z,4.40
2017-08-13T09:11:50.395Z,4.27
2017-08-13T09:14:17.973Z,4.17
2017-08-13T09:16:46.409Z,5.10
2017-08-13T09:19:13.935Z,4.87
2017-08-13T09:21:44.467Z,4.80
2017-08-13T09:24:12.451Z,5.20
2017-08-13T09:26:39.999Z,4.73
2017-08-13T09:29:07.503Z,4.90
2017-08-13T09:31:35.784Z,4.87
2017-08-13T09:34:03.307Z,5.07
2017-08-13T09:36:31.288Z,4.80
2017-08-13T09:38:58.792Z,4.60
2017-08-13T09:41:26.295Z,4.13
2017-08-13T09:43:54.289Z,4.80
2017-08-13T09:46:21.794Z,4.40
2017-08-13T09:48:49.306Z,4.60
2017-08-13T09:51:16.835Z,5.17
2017-08-13T09:53:44.751Z,4.60
2017-08-13T09:56:12.271Z,4.97
2017-08-13T09:58:40.008Z,4.67
2017-08-13T10:01:07.562Z,4.47
2017-08-13T10:03:35.086Z,4.70
2017-08-13T10:06:02.611Z,5.30
2017-08-13T10:08:30.164Z,4.30
2017-08-13T10:10:57.820Z,4.80
2017-08-13T10:13:26.116Z,4.93
2017-08-13T10:15:53.635Z,4.13
2017-08-13T10:18:21.146Z,4.10
2017-08-13T10:20:48.672Z,4.50
2017-08-13T10:23:23.443Z,4.13
2017-08-13T10:25:50.943Z,3.93
2017-08-13T10:28:18.567Z,3.53
2017-08-13T10:30:46.075Z,3.70
2017-08-13T10:33:13.619Z,3.40
2017-08-13T10:35:41.129Z,2.97
2017-08-13T10:38:09.168Z,3.53
2017-08-13T10:40:36.668Z,3.80
2017-08-13T10:43:04.161Z,3.40
2017-08-13T10:45:31.736Z,3.63
2017-08-13T10:47:59.255Z,4.20
2017-08-13T10:50:26.796Z,4.03
2017-08-13T10:52:58.216Z,6.33
2017-08-13T10:55:25.716Z,4.00
2017-08-13T10:57:53.276Z,4.77
2017-08-13T11:00:20.781Z,3.47
2017-08-13T11:02:48.299Z,3.83
2017-08-13T11:05:15.837Z,4.10
2017-08-13T11:07:51.244Z,3.77
2017-08-13T11:10:18.773Z,4.40
2017-08-13T11:12:47.048Z,4.73
2017-08-13T11:15:14.550Z,3.70
2017-08-13T11:17:42.063Z,4.17
2017-08-13T11:20:09.596Z,3.97
2017-08-13T11:22:37.188Z,3.57
2017-08-13T11:25:04.701Z,2.93
2017-08-13T11:27:32.198Z,3.10
2017-08-13T11:29:59.891Z,3.57
2017-08-13T11:32:27.403Z,3.17
2017-08-13T11:34:54.903Z,3.73
2017-08-13T11:37:22.411Z,3.73
2017-08-13T11:39:49.945Z,4.10
2017-08-13T11:42:17.482Z,3.83
2017-08-13T11:44:44.988Z,3.27
2017-08-13T11:47:12.828Z,3.80
2017-08-13T11:49:40.354Z,3.50
2017-08-13T11:52:07.980Z,3.20
2017-08-13T11:54:40.030Z,3.30
2017-08-13T11:57:07.570Z,3.43
2017-08-13T11:59:35.093Z,3.30
2017-08-13T12:02:02.606Z,4.17
2017-08-13T12:04:30.152Z,3.90
2017-08-13T12:06:58.503Z,2.83
2017-08-13T12:09:29.387Z,3.10
2017-08-13T12:11:56.957Z,3.13
2017-08-13T12:14:24.495Z,3.73
2017-08-13T12:16:52.032Z,3.10
2017-08-13T12:19:20.480Z,2.40
2017-08-13T12:21:48.008Z,2.47
2017-08-13T12:24:19.973Z,2.10
2017-08-13T12:26:47.475Z,1.73
2017-08-13T12:29:14.979Z,2.27
2017-08-13T12:31:42.496Z,2.07
2017-08-13T12:34:09.996Z,1.90
2017-08-13T12:36:37.583Z,1.90
2017-08-13T12:39:05.101Z,2.00
2017-08-13T12:41:32.678Z,2.30
2017-08-13T12:44:01.492Z,2.40
2017-08-13T12:46:29.044Z,2.53
2017-08-13T12:48:56.569Z,2.37
2017-08-13T12:51:24.071Z,2.30
2017-08-13T12:53:51.632Z,1.87
2017-08-13T12:56:19.149Z,2.30
2017-08-13T12:58:47.443Z,2.40
2017-08-13T13:01:14.961Z,2.03
2017-08-13T13:03:43.421Z,2.60
2017-08-13T13:06:10.953Z,2.77
2017-08-13T13:08:38.464Z,2.27
2017-08-13T13:11:06.069Z,2.50
2017-08-13T13:13:33.572Z,1.93
2017-08-13T13:16:01.072Z,2.00
2017-08-13T13:18:28.604Z,2.00
2017-08-13T13:20:56.112Z,1.83
2017-08-13T13:23:23.670Z,1.90
2017-08-13T13:25:51.233Z,1.70
2017-08-13T13:28:18.786Z,1.50
2017-08-13T13:30:46.279Z,1.63
2017-08-13T13:33:13.789Z,1.43
2017-08-13T13:35:42.059Z,1.60
2017-08-13T13:38:09.864Z,1.50
2017-08-13T13:40:37.368Z,1.30
2017-08-13T13:43:04.903Z,1.20
2017-08-13T13:45:32.419Z,1.30
2017-08-13T13:47:59.992Z,1.30
2017-08-13T13:50:27.504Z,1.40
2017-08-13T13:52:55.031Z,1.10
2017-08-13T13:55:26.982Z,1.70
2017-08-13T13:57:54.551Z,1.13
2017-08-13T14:00:24.819Z,1.20
2017-08-13T14:02:53.108Z,1.20
2017-08-13T14:05:21.372Z,1.20
2017-08-13T14:07:48.875Z,0.97
2017-08-13T14:10:16.463Z,1.10
2017-08-13T14:12:43.984Z,1.23
2017-08-13T14:15:11.497Z,1.30
2017-08-13T14:17:39.025Z,1.10
2017-08-13T14:20:07.479Z,1.10
2017-08-13T14:22:35.008Z,1.13
2017-08-13T14:25:02.541Z,1.10
2017-08-13T14:27:30.099Z,1.30
2017-08-13T14:29:57.607Z,1.30
2017-08-13T14:32:25.135Z,1.20
2017-08-13T14:34:52.631Z,1.20
2017-08-13T14:37:20.147Z,1.13
2017-08-13T14:39:47.691Z,1.00
2017-08-13T14:42:15.204Z,1.10
2017-08-13T14:44:42.749Z,1.10
2017-08-13T14:47:10.309Z,0.93
2017-08-13T14:49:37.819Z,0.90
2017-08-13T14:52:05.349Z,1.10
2017-08-13T14:54:33.689Z,1.30
2017-08-13T14:57:01.200Z,1.03
2017-08-13T14:59:28.707Z,1.20
2017-08-13T15:01:56.238Z,1.10
2017-08-13T15:04:23.759Z,1.47
2017-08-13T15:06:51.261Z,1.10
2017-08-13T15:09:19.429Z,1.20
2017-08-13T15:11:46.932Z,1.10
2017-08-13T15:14:16.516Z,0.97
2017-08-13T15:16:44.035Z,1.10
2017-08-13T15:19:11.563Z,1.10
2017-08-13T15:21:39.080Z,1.60
2017-08-13T15:24:06.664Z,1.10
2017-08-13T15:26:34.171Z,1.40
2017-08-13T15:29:05.479Z,1.07
2017-08-13T15:31:33.796Z,1.47
2017-08-13T15:34:01.295Z,1.20
2017-08-13T15:36:28.811Z,1.17
2017-08-13T15:38:57.092Z,1.10
2017-08-13T15:41:24.592Z,1.10
2017-08-13T15:43:52.151Z,0.90
2017-08-13T15:46:19.660Z,1.10
2017-08-13T15:48:47.177Z,1.13
2017-08-13T15:51:14.695Z,1.50
2017-08-13T15:53:42.243Z,1.70
2017-08-13T15:56:10.845Z,1.10
2017-08-13T15:58:40.220Z,1.07
2017-08-13T16:01:08.496Z,1.10
2017-08-13T16:03:36.579Z,1.37
2017-08-13T16:06:04.088Z,1.20
2017-08-13T16:08:31.654Z,1.37
2017-08-13T16:10:59.212Z,1.43
2017-08-13T16:13:33.816Z,1.50
2017-08-13T16:16:01.335Z,1.40
2017-08-13T16:18:29.675Z,1.27
2017-08-13T16:20:57.179Z,1.27
2017-08-13T16:23:25.443Z,1.50
2017-08-13T16:25:52.944Z,1.20
2017-08-13T16:28:20.467Z,1.40
2017-08-13T16:30:48.763Z,1.50
2017-08-13T16:33:16.259Z,1.83
2017-08-13T16:35:43.751Z,2.40
2017-08-13T16:38:11.254Z,1.80
2017-08-13T16:40:39.355Z,2.60
2017-08-13T16:43:07.280Z,1.80
2017-08-13T16:45:38.468Z,1.40
2017-08-13T16:48:06.008Z,1.70
2017-08-13T16:50:33.592Z,1.17
2017-08-13T16:53:01.184Z,1.33
2017-08-13T16:55:28.698Z,1.50
2017-08-13T16:57:56.191Z,1.90
2017-08-13T17:00:27.380Z,1.70
2017-08-13T17:02:54.907Z,1.63
2017-08-13T17:05:23.037Z,3.27
2017-08-13T17:07:50.551Z,1.10
2017-08-13T17:10:19.171Z,1.30
2017-08-13T17:12:46.863Z,1.40
2017-08-13T17:15:14.741Z,1.80
2017-08-13T17:17:42.342Z,1.50
2017-08-13T17:20:10.041Z,1.50
2017-08-13T17:22:37.600Z,1.50
2017-08-13T17:25:05.203Z,1.27
2017-08-13T17:27:32.746Z,1.77
2017-08-13T17:30:02.223Z,1.70
2017-08-13T17:32:29.739Z,1.70
2017-08-13T17:34:58.008Z,1.30
2017-08-13T17:37:25.507Z,1.57
2017-08-13T17:39:53.032Z,1.40
2017-08-13T17:42:20.537Z,1.67
2017-08-13T17:44:51.259Z,1.60
2017-08-13T17:47:18.819Z,1.67
2017-08-13T17:49:46.326Z,1.40
2017-08-13T17:52:13.855Z,1.20
2017-08-13T17:54:41.395Z,1.63
2017-08-13T17:57:08.904Z,1.50
2017-08-13T17:59:39.863Z,1.40
2017-08-13T18:02:08.427Z,1.50
2017-08-13T18:04:36.449Z,1.50
2017-08-13T18:07:03.962Z,2.20
2017-08-13T18:09:31.460Z,1.30
2017-08-13T18:11:58.970Z,2.07
2017-08-13T18:14:26.536Z,1.70
2017-08-13T18:16:54.119Z,1.60
2017-08-13T18:19:21.616Z,1.57
2017-08-13T18:21:50.045Z,1.50
2017-08-13T18:24:17.651Z,2.10
2017-08-13T18:26:45.230Z,2.20
2017-08-13T18:29:12.880Z,2.10
2017-08-13T18:31:40.384Z,1.93
2017-08-13T18:34:07.893Z,2.37
2017-08-13T18:36:35.432Z,1.73
2017-08-13T18:39:02.992Z,1.90
2017-08-13T18:41:30.516Z,1.67
2017-08-13T18:43:58.884Z,1.70
2017-08-13T18:46:27.033Z,2.00
2017-08-13T18:48:54.548Z,2.47
2017-08-13T18:51:22.078Z,2.50
2017-08-13T18:53:49.628Z,2.37
2017-08-13T18:56:17.178Z,2.83
2017-08-13T18:58:44.721Z,2.53
2017-08-13T19:01:12.287Z,2.97
2017-08-13T19:03:39.813Z,2.30
2017-08-13T19:06:08.744Z,2.40
2017-08-13T19:08:36.263Z,2.30
2017-08-13T19:11:03.862Z,1.70
2017-08-13T19:13:31.410Z,1.80
2017-08-13T19:16:06.282Z,2.10
2017-08-13T19:18:33.833Z,2.43
2017-08-13T19:21:01.356Z,2.60
2017-08-13T19:23:28.889Z,2.50
2017-08-13T19:25:56.408Z,2.73
2017-08-13T19:28:23.917Z,2.23
2017-08-13T19:30:52.228Z,1.80
2017-08-13T19:33:19.760Z,2.30
2017-08-13T19:35:47.293Z,2.00
2017-08-13T19:38:14.795Z,2.63
2017-08-13T19:40:42.295Z,2.77
2017-08-13T19:43:09.797Z,2.80
2017-08-13T19:45:37.307Z,2.47
2017-08-13T19:48:04.856Z,2.60
2017-08-13T19:50:34.048Z,2.10
2017-08-13T19:53:01.687Z,2.73
2017-08-13T19:55:29.211Z,2.10
2017-08-13T19:57:56.733Z,2.70
2017-08-13T20:00:24.416Z,2.20
2017-08-13T20:02:51.928Z,2.27
2017-08-13T20:05:20.156Z,2.07
2017-08-13T20:07:47.709Z,2.30
2017-08-13T20:10:15.212Z,2.87
2017-08-13T20:12:42.725Z,2.20
2017-08-13T20:15:10.263Z,2.00
2017-08-13T20:17:46.871Z,2.80
2017-08-13T20:20:14.386Z,2.20
2017-08-13T20:22:42.668Z,2.53
2017-08-13T20:25:10.164Z,2.40
2017-08-13T20:27:37.738Z,2.53
2017-08-13T20:30:06.229Z,2.60
2017-08-13T20:32:33.728Z,2.60
2017-08-13T20:35:01.248Z,2.87
2017-08-13T20:37:28.743Z,3.67
2017-08-13T20:39:57.018Z,2.60
2017-08-13T20:42:25.637Z,3.17
2017-08-13T20:44:53.158Z,2.10
2017-08-13T20:47:21.294Z,3.43
2017-08-13T20:49:48.849Z,2.53
2017-08-13T20:52:16.380Z,2.80
2017-08-13T20:54:43.900Z,2.30
2017-08-13T20:57:11.409Z,2.70
2017-08-13T20:59:38.930Z,2.57
2017-08-13T21:02:08.651Z,3.20
2017-08-13T21:04:36.207Z,2.80
2017-08-13T21:07:04.248Z,2.50
2017-08-13T21:09:31.752Z,2.03
2017-08-13T21:11:59.246Z,2.00
2017-08-13T21:14:27.181Z,2.13
2017-08-13T21:16:54.707Z,2.60
2017-08-13T21:19:22.207Z,2.63
2017-08-13T21:21:52.901Z,3.00
2017-08-13T21:24:20.460Z,3.50
2017-08-13T21:26:47.982Z,3.30
2017-08-13T21:29:15.583Z,3.43
2017-08-13T21:31:43.098Z,3.40
2017-08-13T21:34:10.596Z,3.70
2017-08-13T21:36:38.159Z,2.97
2017-08-13T21:39:05.656Z,2.73
2017-08-13T21:41:33.220Z,3.73
2017-08-13T21:44:00.825Z,2.47
2017-08-13T21:46:28.663Z,3.40
2017-08-13T21:48:56.187Z,3.10
2017-08-13T21:51:26.849Z,2.67
2017-08-13T21:53:54.353Z,2.83
2017-08-13T21:56:21.919Z,3.40
2017-08-13T21:58:49.430Z,2.87
2017-08-13T22:01:17.392Z,3.20
2017-08-13T22:03:48.751Z,2.90
2017-08-13T22:06:16.256Z,3.40
2017-08-13T22:08:43.771Z,4.00
2017-08-13T22:11:11.275Z,4.07
2017-08-13T22:13:38.835Z,3.50
2017-08-13T22:16:07.217Z,3.90
2017-08-13T22:18:34.793Z,3.50
2017-08-13T22:21:06.131Z,4.43
2017-08-13T22:23:34.507Z,3.93
2017-08-13T22:26:02.112Z,3.60
2017-08-13T22:28:29.717Z,3.87
2017-08-13T22:30:57.251Z,3.50
2017-08-13T22:33:24.775Z,3.60
2017-08-13T22:35:52.278Z,3.50
2017-08-13T22:38:19.828Z,4.10
2017-08-13T22:40:47.396Z,3.83
2017-08-13T22:43:14.955Z,4.00
2017-08-13T22:45:42.469Z,3.60
2017-08-13T22:48:10.011Z,3.90
2017-08-13T22:50:38.503Z,3.30
2017-08-13T22:53:06.912Z,3.10
2017-08-13T22:55:34.427Z,3.60
2017-08-13T22:58:01.978Z,3.20
2017-08-13T23:00:29.496Z,3.80
2017-08-13T23:02:56.996Z,3.63
2017-08-13T23:05:24.521Z,3.67
2017-08-13T23:07:52.120Z,3.43
2017-08-13T23:10:19.636Z,3.73
2017-08-13T23:12:47.171Z,3.90
2017-08-13T23:15:15.448Z,3.83
2017-08-13T23:17:42.955Z,3.30
2017-08-13T23:20:12.871Z,4.43
2017-08-13T23:22:40.383Z,4.53
2017-08-13T23:25:10.804Z,3.60
2017-08-13T23:27:38.339Z,3.63
2017-08-13T23:30:05.845Z,3.60
2017-08-13T23:32:33.735Z,3.80
2017-08-13T23:35:01.255Z,4.10
2017-08-13T23:37:28.792Z,3.37
2017-08-13T23:39:56.764Z,3.40
2017-08-13T23:42:24.291Z,3.37
2017-08-13T23:44:52.296Z,4.30
2017-08-13T23:47:19.791Z,4.00
2017-08-13T23:49:47.319Z,3.30
2017-08-13T23:52:17.272Z,4.17
2017-08-13T23:54:44.764Z,3.63
2017-08-13T23:57:12.283Z,2.87
2017-08-13T23:59:39.824Z,3.10
